createdAt,value
2022-11-06T00:00:25.676Z,101617.88
2022-11-06T00:02:52.464Z,101612.03
2022-11-06T00:05:37.979Z,101607.00
2022-11-06T00:08:04.766Z,101601.41
2022-11-06T00:10:31.958Z,101591.84
2022-11-06T00:12:59.699Z,101602.72
2022-11-06T00:15:26.252Z,101607.50
2022-11-06T00:17:52.915Z,101605.13
2022-11-06T00:20:19.671Z,101610.69
2022-11-06T00:22:46.359Z,101611.47
2022-11-06T00:25:12.896Z,101610.69
2022-11-06T00:27:41.478Z,101610.16
2022-11-06T00:30:09.743Z,101607.50
2022-11-06T00:32:36.334Z,101596.88
2022-11-06T00:35:02.973Z,101599.53
2022-11-06T00:37:29.868Z,101597.94
2022-11-06T00:39:56.331Z,101604.06
2022-11-06T00:42:22.811Z,101600.84
2022-11-06T00:44:49.363Z,101593.69
2022-11-06T00:47:15.794Z,101598.75
2022-11-06T00:49:42.363Z,101593.97
2022-11-06T00:52:08.916Z,101602.47
2022-11-06T00:54:35.318Z,101597.66
2022-11-06T00:57:01.749Z,101588.66
2022-11-06T00:59:28.291Z,101586.78
2022-11-06T01:01:54.844Z,101584.91
2022-11-06T01:04:23.762Z,101580.94
2022-11-06T01:06:53.202Z,101593.44
2022-11-06T01:09:22.763Z,101583.84
2022-11-06T01:12:12.537Z,101584.38
2022-11-06T01:14:40.666Z,101584.63
2022-11-06T01:17:07.458Z,101585.47
2022-11-06T01:19:33.965Z,101586.25
2022-11-06T01:22:00.456Z,101580.69
2022-11-06T01:24:29.183Z,101583.34
2022-11-06T01:29:44.216Z,101567.13
2022-11-06T01:32:11.274Z,101566.06
2022-11-06T01:34:37.918Z,101572.44
2022-11-06T01:37:04.411Z,101575.09
2022-11-06T01:39:31.405Z,101566.06
2022-11-06T01:41:58.656Z,101561.56
2022-11-06T01:44:43.377Z,101557.84
2022-11-06T01:47:23.195Z,101560.50
2022-11-06T01:49:53.310Z,101561.56
2022-11-06T01:52:21.270Z,101555.19
2022-11-06T01:54:53.004Z,101559.69
2022-11-06T01:57:20.156Z,101564.75
2022-11-06T01:59:46.908Z,101561.56
2022-11-06T02:02:16.685Z,101562.09
2022-11-06T02:04:48.221Z,101555.19
2022-11-06T02:07:15.938Z,101545.06
2022-11-06T02:09:42.438Z,101538.19
2022-11-06T02:12:16.427Z,101536.59
2022-11-06T02:15:04.969Z,101527.81
2022-11-06T02:17:38.964Z,101531.00
2022-11-06T02:20:21.925Z,101529.13
2022-11-06T02:23:21.486Z,101521.16
2022-11-06T02:26:20.344Z,101525.44
2022-11-06T02:28:53.348Z,101523.81
2022-11-06T02:31:26.318Z,101534.44
2022-11-06T02:33:57.895Z,101521.97
2022-11-06T02:36:32.355Z,101523.81
2022-11-06T02:39:08.421Z,101523.03
2022-11-06T02:41:40.943Z,101517.47
2022-11-06T02:44:10.377Z,101508.69
2022-11-06T02:46:44.776Z,101512.16
2022-11-06T02:49:26.067Z,101514.81
2022-11-06T02:52:10.513Z,101521.97
2022-11-06T02:54:41.010Z,101507.88
2022-11-06T02:57:14.565Z,101501.53
2022-11-06T02:59:47.656Z,101509.75
2022-11-06T03:02:22.377Z,101516.13
2022-11-06T03:04:58.502Z,101510.81
2022-11-06T03:07:48.795Z,101506.28
2022-11-06T03:10:15.867Z,101492.22
2022-11-06T03:13:00.468Z,101490.09
2022-11-06T03:15:41.191Z,101490.34
2022-11-06T03:18:23.885Z,101503.38
2022-11-06T03:21:03.041Z,101494.88
2022-11-06T03:23:37.411Z,101490.34
2022-11-06T03:26:09.693Z,101504.44
2022-11-06T03:28:39.811Z,101508.69
2022-11-06T03:31:11.978Z,101503.13
2022-11-06T03:33:44.243Z,101503.13
2022-11-06T03:36:22.505Z,101497.00
2022-11-06T03:38:53.089Z,101494.63
2022-11-06T03:41:27.795Z,101490.88
2022-11-06T03:44:00.807Z,101483.72
2022-11-06T03:46:30.272Z,101468.31
2022-11-06T03:49:08.683Z,101465.94
2022-11-06T03:51:49.015Z,101469.91
2022-11-06T03:54:23.498Z,101465.91
2022-11-06T03:56:57.992Z,101460.88
2022-11-06T03:59:30.139Z,101456.63
2022-11-06T04:01:59.021Z,101448.94
2022-11-06T04:04:31.421Z,101457.16
2022-11-06T04:07:03.082Z,101455.56
2022-11-06T04:09:51.697Z,101460.06
2022-11-06T04:12:41.269Z,101448.41
2022-11-06T04:15:12.543Z,101446.53
2022-11-06T04:17:41.074Z,101442.00
2022-11-06T04:20:32.261Z,101443.63
2022-11-06T04:23:12.415Z,101434.84
2022-11-06T04:26:20.972Z,101435.09
2022-11-06T04:29:04.712Z,101444.94
2022-11-06T04:31:59.109Z,101434.03
2022-11-06T04:34:38.261Z,101444.66
2022-11-06T04:37:15.262Z,101446.00
2022-11-06T04:39:51.967Z,101436.16
2022-11-06T04:42:35.781Z,101440.94
2022-11-06T04:45:07.891Z,101438.03
2022-11-06T04:47:37.283Z,101436.69
2022-11-06T04:50:07.726Z,101432.97
2022-11-06T04:52:36.973Z,101432.19
2022-11-06T04:55:04.130Z,101425.00
2022-11-06T04:57:30.584Z,101416.47
2022-11-06T04:59:58.002Z,101412.78
2022-11-06T05:02:24.795Z,101413.03
2022-11-06T05:04:51.507Z,101411.47
2022-11-06T05:07:18.006Z,101413.03
2022-11-06T05:09:45.706Z,101408.50
2022-11-06T05:12:12.496Z,101416.47
2022-11-06T05:14:39.010Z,101410.66
2022-11-06T05:17:05.574Z,101410.38
2022-11-06T05:19:32.135Z,101415.69
2022-11-06T05:22:17.216Z,101417.53
2022-11-06T05:24:43.854Z,101408.25
2022-11-06T05:27:10.374Z,101408.78
2022-11-06T05:29:36.818Z,101397.09
2022-11-06T05:32:03.699Z,101393.09
2022-11-06T05:34:30.688Z,101388.84
2022-11-06T05:36:57.483Z,101385.66
2022-11-06T05:39:24.099Z,101393.09
2022-11-06T05:41:50.612Z,101387.78
2022-11-06T05:44:17.372Z,101392.84
2022-11-06T05:46:50.999Z,101393.38
2022-11-06T05:49:18.827Z,101386.44
2022-11-06T05:51:45.541Z,101387.75
2022-11-06T05:54:12.084Z,101371.03
2022-11-06T05:56:38.795Z,101373.44
2022-11-06T05:59:05.395Z,101378.75
2022-11-06T06:01:31.995Z,101372.91
2022-11-06T06:03:58.812Z,101367.06
2022-11-06T06:06:26.145Z,101372.91
2022-11-06T06:08:52.603Z,101363.06
2022-11-06T06:11:19.441Z,101355.09
2022-11-06T06:13:45.852Z,101356.69
2022-11-06T06:16:12.430Z,101361.72
2022-11-06T06:18:38.884Z,101352.16
2022-11-06T06:21:05.746Z,101338.09
2022-11-06T06:23:32.699Z,101342.31
2022-11-06T06:25:59.248Z,101338.09
2022-11-06T06:28:25.988Z,101334.34
2022-11-06T06:30:55.946Z,101328.25
2022-11-06T06:33:26.642Z,101333.81
2022-11-06T06:35:53.084Z,101330.66
2022-11-06T06:38:19.710Z,101334.38
2022-11-06T06:40:46.147Z,101331.97
2022-11-06T06:43:12.572Z,101338.34
2022-11-06T06:45:39.207Z,101342.63
2022-11-06T06:48:06.374Z,101340.75
2022-11-06T06:50:33.076Z,101346.31
2022-11-06T06:52:59.611Z,101354.03
2022-11-06T06:55:26.879Z,101348.72
2022-11-06T06:57:58.143Z,101337.03
2022-11-06T07:00:25.744Z,101338.88
2022-11-06T07:02:52.789Z,101332.25
2022-11-06T07:05:20.311Z,101342.09
2022-11-06T07:07:47.317Z,101334.38
2022-11-06T07:10:13.869Z,101330.16
2022-11-06T07:12:40.372Z,101330.94
2022-11-06T07:15:07.785Z,101324.81
2022-11-06T07:17:34.303Z,101328.28
2022-11-06T07:20:00.894Z,101329.84
2022-11-06T07:22:35.402Z,101337.81
2022-11-06T07:25:04.257Z,101332.78
2022-11-06T07:27:30.802Z,101328.53
2022-11-06T07:29:57.377Z,101326.66
2022-11-06T07:32:24.027Z,101326.41
2022-11-06T07:34:50.499Z,101323.97
2022-11-06T07:37:18.082Z,101312.81
2022-11-06T07:39:44.669Z,101313.59
2022-11-06T07:42:11.168Z,101310.69
2022-11-06T07:44:37.616Z,101316.50
2022-11-06T07:47:04.506Z,101321.25
2022-11-06T07:49:31.124Z,101315.34
2022-11-06T07:51:57.604Z,101316.66
2022-11-06T07:54:24.160Z,101327.25
2022-11-06T07:56:50.644Z,101317.13
2022-11-06T07:59:17.211Z,101327.72
2022-11-06T08:01:43.813Z,101323.69
2022-11-06T08:04:11.917Z,101314.09
2022-11-06T08:06:38.458Z,101314.28
2022-11-06T08:09:09.018Z,101313.69
2022-11-06T08:11:36.012Z,101309.16
2022-11-06T08:14:02.901Z,101311.47
2022-11-06T08:16:29.613Z,101300.50
2022-11-06T08:18:56.289Z,101303.16
2022-11-06T08:21:23.141Z,101298.81
2022-11-06T08:23:49.725Z,101297.69
2022-11-06T08:26:16.457Z,101294.16
2022-11-06T08:28:43.320Z,101290.09
2022-11-06T08:31:10.109Z,101281.78
2022-11-06T08:33:38.443Z,101276.69
2022-11-06T08:36:08.320Z,101279.00
2022-11-06T08:38:36.298Z,101281.09
2022-11-06T08:41:08.298Z,101269.31
2022-11-06T08:43:35.524Z,101266.34
2022-11-06T08:46:02.433Z,101262.19
2022-11-06T08:48:31.444Z,101246.63
2022-11-06T08:50:57.951Z,101250.81
2022-11-06T08:53:24.708Z,101252.34
2022-11-06T08:55:51.432Z,101249.03
2022-11-06T08:58:18.161Z,101249.69
2022-11-06T09:00:44.698Z,101237.94
2022-11-06T09:03:13.993Z,101247.44
2022-11-06T09:05:42.527Z,101238.28
2022-11-06T09:08:10.360Z,101237.22
2022-11-06T09:10:38.256Z,101221.06
2022-11-06T09:13:04.831Z,101226.28
2022-11-06T09:15:31.759Z,101213.97
2022-11-06T09:17:58.680Z,101217.72
2022-11-06T09:20:26.546Z,101219.94
2022-11-06T09:22:53.751Z,101206.25
2022-11-06T09:25:20.869Z,101208.13
2022-11-06T09:27:58.870Z,101209.13
2022-11-06T09:30:27.825Z,101214.41
2022-11-06T09:32:56.853Z,101200.94
2022-11-06T09:35:25.365Z,101202.94
2022-11-06T09:37:52.533Z,101202.66
2022-11-06T09:40:30.720Z,101198.44
2022-11-06T09:43:03.924Z,101196.94
2022-11-06T09:45:33.508Z,101189.94
2022-11-06T09:48:11.306Z,101196.97
2022-11-06T09:50:45.605Z,101191.53
2022-11-06T09:53:27.850Z,101193.34
2022-11-06T09:55:56.096Z,101196.44
2022-11-06T09:58:28.629Z,101191.69
2022-11-06T10:00:55.529Z,101200.47
2022-11-06T10:03:42.545Z,101191.69
2022-11-06T10:06:09.074Z,101189.22
2022-11-06T10:08:36.244Z,101186.44
2022-11-06T10:11:15.664Z,101190.00
2022-11-06T10:14:10.542Z,101191.06
2022-11-06T10:16:42.712Z,101180.69
2022-11-06T10:19:35.546Z,101173.66
2022-11-06T10:22:08.144Z,101177.13
2022-11-06T10:24:42.270Z,101171.19
2022-11-06T10:27:23.069Z,101164.66
2022-11-06T10:30:10.966Z,101157.13
2022-11-06T10:32:53.106Z,101152.47
2022-11-06T10:35:28.847Z,101149.50
2022-11-06T10:38:03.746Z,101152.97
2022-11-06T10:40:32.808Z,101147.31
2022-11-06T10:43:12.471Z,101147.63
2022-11-06T10:45:43.832Z,101135.53
2022-11-06T10:48:31.075Z,101148.81
2022-11-06T10:51:25.369Z,101141.69
2022-11-06T10:53:54.460Z,101137.72
2022-11-06T10:56:33.148Z,101136.44
2022-11-06T10:58:59.770Z,101129.31
2022-11-06T11:01:26.559Z,101124.28
2022-11-06T11:03:54.437Z,101112.31
2022-11-06T11:06:21.373Z,101115.97
2022-11-06T11:08:49.682Z,101121.03
2022-11-06T11:11:16.069Z,101113.72
2022-11-06T11:13:51.848Z,101103.59
2022-11-06T11:16:24.695Z,101097.47
2022-11-06T11:18:52.039Z,101094.00
2022-11-06T11:21:18.491Z,101095.78
2022-11-06T11:24:10.282Z,101084.00
2022-11-06T11:26:48.204Z,101085.28
2022-11-06T11:29:23.829Z,101087.06
2022-11-06T11:31:53.042Z,101081.41
2022-11-06T11:34:24.870Z,101080.50
2022-11-06T11:36:53.115Z,101072.06
2022-11-06T11:39:23.540Z,101069.53
2022-11-06T11:41:50.225Z,101067.50
2022-11-06T11:44:19.167Z,101057.50
2022-11-06T11:46:52.541Z,101053.84
2022-11-06T11:49:36.939Z,101061.34
2022-11-06T11:52:11.731Z,101045.22
2022-11-06T11:54:39.961Z,101037.38
2022-11-06T11:57:18.697Z,101038.56
2022-11-06T11:59:49.243Z,101037.09
2022-11-06T12:02:27.396Z,101034.63
2022-11-06T12:05:02.395Z,101027.66
2022-11-06T12:07:33.627Z,101027.19
2022-11-06T12:10:02.079Z,101023.91
2022-11-06T12:12:34.019Z,101018.72
2022-11-06T12:15:19.292Z,101018.72
2022-11-06T12:17:52.454Z,101010.31
2022-11-06T12:20:26.349Z,101003.84
2022-11-06T12:22:55.937Z,101001.31
2022-11-06T12:25:33.313Z,100998.03
2022-11-06T12:28:01.935Z,100995.03
2022-11-06T12:30:32.893Z,100988.25
2022-11-06T12:33:02.815Z,100979.78
2022-11-06T12:35:32.296Z,100978.03
2022-11-06T12:38:17.824Z,100978.88
2022-11-06T12:40:50.837Z,100956.22
2022-11-06T12:43:25.374Z,100963.25
2022-11-06T12:46:05.475Z,100958.88
2022-11-06T12:49:09.262Z,100958.72
2022-11-06T12:51:57.625Z,100957.16
2022-11-06T12:55:12.091Z,100946.19
2022-11-06T12:57:59.426Z,100953.81
2022-11-06T13:00:36.230Z,100955.91
2022-11-06T13:03:30.339Z,100954.66
2022-11-06T13:06:15.059Z,100949.44
2022-11-06T13:08:44.468Z,100955.72
2022-11-06T13:11:13.972Z,100958.88
2022-11-06T13:13:59.778Z,100964.97
2022-11-06T13:16:50.172Z,100958.94
2022-11-06T13:19:47.300Z,100948.41
2022-11-06T13:22:36.811Z,100952.34
2022-11-06T13:25:22.457Z,100948.22
2022-11-06T13:27:59.932Z,100945.53
2022-11-06T13:30:28.659Z,100947.53
2022-11-06T13:33:19.717Z,100945.47
2022-11-06T13:35:46.893Z,100951.06
2022-11-06T13:38:26.409Z,100941.41
2022-11-06T13:41:02.215Z,100945.28
2022-11-06T13:43:38.598Z,100942.75
2022-11-06T13:46:35.890Z,100945.13
2022-11-06T13:49:23.512Z,100941.97
2022-11-06T13:51:58.569Z,100941.97
2022-11-06T13:54:29.182Z,100943.59
2022-11-06T13:57:28.661Z,100941.72
2022-11-06T14:00:34.126Z,100938.94
2022-11-06T14:03:17.313Z,100939.53
2022-11-06T14:06:02.548Z,100941.84
2022-11-06T14:08:35.283Z,100933.75
2022-11-06T14:11:06.940Z,100937.63
2022-11-06T14:13:35.792Z,100927.63
2022-11-06T14:16:02.322Z,100935.94
2022-11-06T14:18:29.088Z,100934.16
2022-11-06T14:21:26.188Z,100920.63
2022-11-06T14:24:30.973Z,100923.00
2022-11-06T14:26:58.367Z,100924.69
2022-11-06T14:29:29.080Z,100930.44
2022-11-06T14:32:30.660Z,100919.84
2022-11-06T14:34:58.387Z,100915.41
2022-11-06T14:37:31.044Z,100912.16
2022-11-06T14:39:57.732Z,100913.03
2022-11-06T14:42:26.864Z,100913.63
2022-11-06T14:44:56.935Z,100918.44
2022-11-06T14:47:31.760Z,100896.13
2022-11-06T14:50:07.226Z,100899.69
2022-11-06T14:52:47.784Z,100894.47
2022-11-06T14:55:32.232Z,100887.34
2022-11-06T14:58:12.482Z,100892.19
2022-11-06T15:00:51.539Z,100886.06
2022-11-06T15:03:31.116Z,100862.56
2022-11-06T15:06:16.318Z,100876.97
2022-11-06T15:08:46.076Z,100871.91
2022-11-06T15:11:30.696Z,100862.91
2022-11-06T15:14:17.018Z,100852.06
2022-11-06T15:17:06.570Z,100857.78
2022-11-06T15:19:39.347Z,100862.28
2022-11-06T15:22:28.565Z,100869.38
2022-11-06T15:25:00.640Z,100862.28
2022-11-06T15:27:33.652Z,100851.41
2022-11-06T15:30:03.234Z,100848.53
2022-11-06T15:32:38.792Z,100843.09
2022-11-06T15:35:19.800Z,100827.00
2022-11-06T15:37:57.084Z,100830.16
2022-11-06T15:40:29.829Z,100829.16
2022-11-06T15:43:01.637Z,100832.38
2022-11-06T15:45:29.528Z,100819.66
2022-11-06T15:48:01.299Z,100817.66
2022-11-06T15:50:32.620Z,100806.41
2022-11-06T15:53:14.680Z,100804.22
2022-11-06T15:55:48.366Z,100800.94
2022-11-06T15:58:23.076Z,100800.06
2022-11-06T16:00:51.339Z,100797.47
2022-11-06T16:03:20.049Z,100795.69
2022-11-06T16:05:48.523Z,100789.56
2022-11-06T16:08:17.628Z,100780.38
2022-11-06T16:10:45.673Z,100780.09
2022-11-06T16:13:14.769Z,100777.44
2022-11-06T16:15:57.225Z,100768.53
2022-11-06T16:18:44.534Z,100761.63
2022-11-06T16:21:20.136Z,100758.44
2022-11-06T16:23:53.926Z,100744.66
2022-11-06T16:26:25.248Z,100745.44
2022-11-06T16:28:54.152Z,100745.81
2022-11-06T16:31:23.718Z,100736.81
2022-11-06T16:33:54.127Z,100732.00
2022-11-06T16:36:21.033Z,100736.53
2022-11-06T16:38:47.541Z,100735.75
2022-11-06T16:41:36.458Z,100728.34
2022-11-06T16:44:29.682Z,100730.28
2022-11-06T16:47:10.023Z,100731.94
2022-11-06T16:49:38.692Z,100713.78
2022-11-06T16:52:30.809Z,100724.69
2022-11-06T16:55:17.240Z,100714.28
2022-11-06T16:57:48.526Z,100723.31
2022-11-06T17:00:20.781Z,100710.34
2022-11-06T17:02:51.968Z,100716.50
2022-11-06T17:05:20.215Z,100712.50
2022-11-06T17:07:47.056Z,100716.22
2022-11-06T17:10:34.957Z,100733.75
2022-11-06T17:13:21.385Z,100741.56
2022-11-06T17:15:51.948Z,100725.59
2022-11-06T17:18:21.909Z,100734.41
2022-11-06T17:21:04.605Z,100722.94
2022-11-06T17:23:32.867Z,100708.88
2022-11-06T17:26:03.985Z,100720.59
2022-11-06T17:28:30.592Z,100729.19
2022-11-06T17:30:57.180Z,100709.34
2022-11-06T17:33:24.085Z,100716.16
2022-11-06T17:35:51.046Z,100709.25
2022-11-06T17:38:18.240Z,100708.78
2022-11-06T17:40:45.526Z,100720.91
2022-11-06T17:43:12.473Z,100725.72
2022-11-06T17:45:42.195Z,100725.00
2022-11-06T17:48:08.666Z,100717.91
2022-11-06T17:50:55.402Z,100724.84
2022-11-06T17:53:22.172Z,100723.72
2022-11-06T17:55:48.635Z,100716.31
2022-11-06T17:58:15.721Z,100711.78
2022-11-06T18:00:42.868Z,100714.66
2022-11-06T18:03:17.890Z,100706.25
2022-11-06T18:05:44.703Z,100711.50
2022-11-06T18:08:13.430Z,100713.38
2022-11-06T18:10:40.355Z,100707.81
2022-11-06T18:13:07.127Z,100707.31
2022-11-06T18:15:35.529Z,100704.38
2022-11-06T18:18:02.687Z,100702.78
2022-11-06T18:20:29.290Z,100701.50
2022-11-06T18:22:55.962Z,100705.66
2022-11-06T18:25:22.491Z,100697.47
2022-11-06T18:27:48.988Z,100698.47
2022-11-06T18:30:15.833Z,100698.44
2022-11-06T18:32:42.302Z,100689.69
2022-11-06T18:35:09.192Z,100684.38
2022-11-06T18:37:35.689Z,100693.91
2022-11-06T18:40:02.393Z,100678.03
2022-11-06T18:42:29.090Z,100677.47
2022-11-06T18:44:55.657Z,100683.50
2022-11-06T18:47:22.205Z,100692.63
2022-11-06T18:49:48.799Z,100691.25
2022-11-06T18:52:27.740Z,100691.97
2022-11-06T18:55:01.851Z,100690.88
2022-11-06T18:57:29.487Z,100699.09
2022-11-06T18:59:56.172Z,100691.91
2022-11-06T19:02:22.662Z,100700.91
2022-11-06T19:04:49.426Z,100694.56
2022-11-06T19:07:16.050Z,100698.00
2022-11-06T19:09:42.578Z,100695.59
2022-11-06T19:12:09.160Z,100694.22
2022-11-06T19:14:35.602Z,100695.81
2022-11-06T19:17:02.140Z,100693.66
2022-11-06T19:19:28.589Z,100698.19
2022-11-06T19:21:55.255Z,100701.84
2022-11-06T19:24:22.486Z,100698.59
2022-11-06T19:26:50.341Z,100695.72
2022-11-06T19:29:17.219Z,100693.78
2022-11-06T19:31:43.669Z,100693.06
2022-11-06T19:34:12.602Z,100690.91
2022-11-06T19:36:39.273Z,100694.38
2022-11-06T19:39:07.277Z,100683.94
2022-11-06T19:41:34.131Z,100690.13
2022-11-06T19:44:00.602Z,100676.94
2022-11-06T19:46:31.065Z,100679.63
2022-11-06T19:49:02.165Z,100688.50
2022-11-06T19:51:28.770Z,100675.53
2022-11-06T19:53:55.457Z,100690.66
2022-11-06T19:56:22.731Z,100688.31
2022-11-06T19:58:51.090Z,100699.13
2022-11-06T20:01:19.163Z,100689.81
2022-11-06T20:03:46.002Z,100690.31
2022-11-06T20:06:13.466Z,100697.50
2022-11-06T20:08:40.219Z,100693.25
2022-11-06T20:11:08.822Z,100694.03
2022-11-06T20:13:39.058Z,100688.44
2022-11-06T20:16:07.755Z,100687.34
2022-11-06T20:18:35.947Z,100694.72
2022-11-06T20:21:04.680Z,100688.34
2022-11-06T20:23:31.916Z,100687.75
2022-11-06T20:25:58.559Z,100692.50
2022-11-06T20:28:25.420Z,100687.97
2022-11-06T20:30:52.616Z,100694.56
2022-11-06T20:33:19.227Z,100705.44
2022-11-06T20:35:46.164Z,100707.72
2022-11-06T20:38:14.619Z,100715.13
2022-11-06T20:40:42.387Z,100718.22
2022-11-06T20:43:09.786Z,100712.81
2022-11-06T20:45:37.524Z,100723.16
2022-11-06T20:48:05.668Z,100724.16
2022-11-06T20:50:32.911Z,100726.75
2022-11-06T20:53:00.118Z,100719.56
2022-11-06T20:55:26.725Z,100724.28
2022-11-06T20:57:53.216Z,100709.91
2022-11-06T21:00:19.734Z,100709.31
2022-11-06T21:02:46.829Z,100706.38
2022-11-06T21:05:14.877Z,100713.28
2022-11-06T21:07:41.892Z,100717.31
2022-11-06T21:10:10.884Z,100708.53
2022-11-06T21:12:37.961Z,100720.84
2022-11-06T21:15:04.923Z,100727.81
2022-11-06T21:17:31.387Z,100717.28
2022-11-06T21:19:57.832Z,100720.81
2022-11-06T21:22:24.357Z,100727.78
2022-11-06T21:24:50.771Z,100728.56
2022-11-06T21:27:17.260Z,100739.47
2022-11-06T21:29:43.741Z,100742.44
2022-11-06T21:32:10.275Z,100739.25
2022-11-06T21:34:36.808Z,100734.53
2022-11-06T21:37:03.342Z,100735.91
2022-11-06T21:39:34.697Z,100748.69
2022-11-06T21:42:03.205Z,100740.50
2022-11-06T21:44:29.615Z,100747.19
2022-11-06T21:46:56.192Z,100743.75
2022-11-06T21:49:22.807Z,100742.16
2022-11-06T21:51:49.286Z,100746.47
2022-11-06T21:54:34.527Z,100758.19
2022-11-06T21:57:01.086Z,100761.91
2022-11-06T21:59:29.237Z,100761.13
2022-11-06T22:01:56.300Z,100765.34
2022-11-06T22:04:23.080Z,100766.16
2022-11-06T22:06:49.578Z,100760.34
2022-11-06T22:09:19.479Z,100760.34
2022-11-06T22:11:48.643Z,100763.50
2022-11-06T22:14:16.914Z,100774.91
2022-11-06T22:16:46.189Z,100765.06
2022-11-06T22:19:14.148Z,100762.41
2022-11-06T22:21:40.764Z,100762.69
2022-11-06T22:24:08.238Z,100782.63
2022-11-06T22:26:36.374Z,100773.81
2022-11-06T22:29:07.767Z,100774.91
2022-11-06T22:31:34.501Z,100774.13
2022-11-06T22:34:01.050Z,100768.00
2022-11-06T22:36:27.613Z,100780.50
2022-11-06T22:38:54.307Z,100790.38
2022-11-06T22:41:23.862Z,100777.06
2022-11-06T22:43:51.428Z,100798.06
2022-11-06T22:46:21.927Z,100788.50
2022-11-06T22:48:49.097Z,100800.72
2022-11-06T22:51:18.139Z,100806.31
2022-11-06T22:53:44.695Z,100804.16
2022-11-06T22:56:14.727Z,100805.72
2022-11-06T22:58:42.122Z,100792.44
2022-11-06T23:01:09.948Z,100803.06
2022-11-06T23:03:36.815Z,100803.56
2022-11-06T23:06:07.205Z,100797.19
2022-11-06T23:08:34.641Z,100796.91
2022-11-06T23:11:07.905Z,100798.50
2022-11-06T23:13:35.374Z,100792.38
2022-11-06T23:16:11.225Z,100799.28
2022-11-06T23:18:38.661Z,100803.22
2022-11-06T23:21:13.493Z,100800.78
2022-11-06T23:23:40.630Z,100805.03
2022-11-06T23:26:16.907Z,100803.94
2022-11-06T23:28:44.251Z,100819.91
2022-11-06T23:31:12.736Z,100805.53
2022-11-06T23:33:39.518Z,100805.81
2022-11-06T23:36:11.312Z,100814.59
2022-11-06T23:38:38.177Z,100821.50
2022-11-06T23:41:28.105Z,100829.75
2022-11-06T23:43:55.711Z,100823.34
2022-11-06T23:46:24.907Z,100831.03
2022-11-06T23:48:51.378Z,100826.00
2022-11-06T23:51:18.598Z,100817.25
2022-11-06T23:53:45.329Z,100820.69
2022-11-06T23:56:13.281Z,100833.72
2022-11-06T23:58:40.611Z,100837.16
